AXM5436 WBGG-WMKP
Flight info
| Callsign | AXM5436 |
|---|---|
| Flight time | N/A |
| Altitude | 36000 |
| Route | ESBA1E ESBAL M761 KETOD Y336 PADLI TEPUS GORV1E |
| Aircraft | A320/L-V/N |
Departure
| Time | 2026-05-07 11:36 |
|---|---|
| Airport | Kuching International Airport (WBGG) |
Arrival
| Time | N/A |
|---|---|
| Airport | Penang International Airport (WMKP) |
| Time | Latitude | Longitude | Altitude | Speed | Heading |
|---|---|---|---|---|---|
| 2026-05-07 11:22 | 1.48633 | 110.34172 | 87 ft | 0 kts | 338° |
| 2026-05-07 11:26 | 1.48628 | 110.34174 | 87 ft | 2 kts | 339° |
| 2026-05-07 11:26 | 1.48614 | 110.34180 | 87 ft | 2 kts | 338° |
| 2026-05-07 11:26 | 1.48600 | 110.34185 | 87 ft | 2 kts | 338° |
| 2026-05-07 11:27 | 1.48586 | 110.34190 | 87 ft | 2 kts | 338° |
| 2026-05-07 11:27 | 1.48574 | 110.34194 | 87 ft | 1 kts | 12° |
| 2026-05-07 11:27 | 1.48566 | 110.34190 | 87 ft | 0 kts | 65° |
| 2026-05-07 11:27 | 1.48564 | 110.34182 | 87 ft | 0 kts | 74° |
| 2026-05-07 11:28 | 1.48563 | 110.34179 | 87 ft | 0 kts | 69° |
| 2026-05-07 11:29 | 1.48564 | 110.34180 | 87 ft | 0 kts | 70° |
| 2026-05-07 11:29 | 1.48571 | 110.34203 | 87 ft | 6 kts | 84° |
| 2026-05-07 11:29 | 1.48522 | 110.34251 | 87 ft | 13 kts | 125° |
| 2026-05-07 11:30 | 1.48540 | 110.34355 | 87 ft | 18 kts | 68° |
| 2026-05-07 11:30 | 1.48595 | 110.34492 | 86 ft | 24 kts | 68° |
| 2026-05-07 11:30 | 1.48659 | 110.34650 | 81 ft | 24 kts | 69° |
| 2026-05-07 11:30 | 1.48719 | 110.34802 | 80 ft | 22 kts | 68° |
| 2026-05-07 11:31 | 1.48777 | 110.34947 | 77 ft | 22 kts | 69° |
| 2026-05-07 11:31 | 1.48835 | 110.35089 | 75 ft | 21 kts | 68° |
| 2026-05-07 11:31 | 1.48888 | 110.35222 | 75 ft | 19 kts | 69° |
| 2026-05-07 11:31 | 1.48938 | 110.35348 | 72 ft | 19 kts | 68° |
| 2026-05-07 11:32 | 1.49050 | 110.35624 | 61 ft | 24 kts | 68° |
| 2026-05-07 11:32 | 1.49115 | 110.35786 | 53 ft | 26 kts | 68° |
| 2026-05-07 11:32 | 1.49184 | 110.35958 | 48 ft | 26 kts | 68° |
| 2026-05-07 11:33 | 1.49253 | 110.36132 | 46 ft | 26 kts | 68° |
| 2026-05-07 11:33 | 1.49320 | 110.36297 | 46 ft | 24 kts | 68° |
| 2026-05-07 11:33 | 1.49381 | 110.36449 | 50 ft | 22 kts | 67° |
| 2026-05-07 11:33 | 1.49438 | 110.36585 | 51 ft | 20 kts | 68° |
| 2026-05-07 11:34 | 1.49486 | 110.36712 | 53 ft | 18 kts | 69° |
| 2026-05-07 11:34 | 1.49427 | 110.36803 | 53 ft | 17 kts | 154° |
| 2026-05-07 11:34 | 1.49348 | 110.36821 | 53 ft | 7 kts | 221° |
| 2026-05-07 11:34 | 1.49324 | 110.36773 | 53 ft | 8 kts | 249° |
| 2026-05-07 11:35 | 1.49266 | 110.36623 | 52 ft | 54 kts | 248° |
| 2026-05-07 11:35 | 1.49033 | 110.36040 | 43 ft | 121 kts | 249° |
| 2026-05-07 11:35 | 1.48657 | 110.35089 | 93 ft | 168 kts | 249° |
| 2026-05-07 11:35 | 1.48233 | 110.34024 | 644 ft | 165 kts | 249° |
| 2026-05-07 11:36 | 1.47791 | 110.32947 | 1200 ft | 169 kts | 248° |
| 2026-05-07 11:36 | 1.47337 | 110.31856 | 1795 ft | 171 kts | 249° |
| 2026-05-07 11:36 | 1.46869 | 110.30723 | 2198 ft | 183 kts | 249° |
| 2026-05-07 11:36 | 1.46362 | 110.29492 | 2530 ft | 199 kts | 248° |
| 2026-05-07 11:37 | 1.45815 | 110.28162 | 2869 ft | 216 kts | 248° |
| 2026-05-07 11:37 | 1.45204 | 110.26678 | 3136 ft | 240 kts | 248° |
| 2026-05-07 11:37 | 1.44555 | 110.25104 | 3555 ft | 257 kts | 248° |
| 2026-05-07 11:37 | 1.43848 | 110.23392 | 4064 ft | 271 kts | 248° |
| 2026-05-07 11:38 | 1.43122 | 110.21626 | 4767 ft | 276 kts | 247° |
| 2026-05-07 11:38 | 1.42392 | 110.19849 | 5508 ft | 280 kts | 247° |
| 2026-05-07 11:38 | 1.41640 | 110.18019 | 6270 ft | 284 kts | 247° |
| 2026-05-07 11:38 | 1.41133 | 110.16127 | 6996 ft | 289 kts | 268° |
| 2026-05-07 11:39 | 1.41497 | 110.14157 | 7739 ft | 292 kts | 295° |
| 2026-05-07 11:39 | 1.42662 | 110.12503 | 8471 ft | 293 kts | 316° |
| 2026-05-07 11:39 | 1.44104 | 110.11017 | 9163 ft | 298 kts | 308° |
| 2026-05-07 11:39 | 1.45165 | 110.09233 | 9845 ft | 302 kts | 297° |
| 2026-05-07 11:40 | 1.46091 | 110.07334 | 10416 ft | 310 kts | 296° |
| 2026-05-07 11:40 | 1.47026 | 110.05318 | 10763 ft | 325 kts | 295° |
| 2026-05-07 11:40 | 1.47979 | 110.03213 | 11351 ft | 331 kts | 295° |
| 2026-05-07 11:40 | 1.48919 | 110.01113 | 12014 ft | 334 kts | 295° |
| 2026-05-07 11:41 | 1.49880 | 109.98959 | 12661 ft | 337 kts | 295° |
| 2026-05-07 11:41 | 1.50839 | 109.96797 | 13280 ft | 340 kts | 295° |
| 2026-05-07 11:41 | 1.51801 | 109.94630 | 13877 ft | 343 kts | 295° |
| 2026-05-07 11:41 | 1.52771 | 109.92444 | 14454 ft | 347 kts | 295° |
| 2026-05-07 11:42 | 1.53752 | 109.90231 | 15021 ft | 350 kts | 295° |
| 2026-05-07 11:42 | 1.54747 | 109.87985 | 15562 ft | 354 kts | 295° |
| 2026-05-07 11:42 | 1.55759 | 109.85705 | 16057 ft | 360 kts | 296° |
| 2026-05-07 11:42 | 1.56777 | 109.83410 | 16467 ft | 367 kts | 295° |
| 2026-05-07 11:43 | 1.57829 | 109.81036 | 16968 ft | 371 kts | 296° |
| 2026-05-07 11:43 | 1.58882 | 109.78657 | 17485 ft | 375 kts | 296° |
| 2026-05-07 11:43 | 1.59943 | 109.76261 | 17965 ft | 378 kts | 296° |
| 2026-05-07 11:43 | 1.60944 | 109.74004 | 18398 ft | 382 kts | 296° |
| 2026-05-07 11:44 | 1.62028 | 109.71561 | 18875 ft | 385 kts | 296° |
| 2026-05-07 11:44 | 1.63126 | 109.69083 | 19355 ft | 388 kts | 296° |
| 2026-05-07 11:44 | 1.64210 | 109.66635 | 19804 ft | 391 kts | 296° |
| 2026-05-07 11:44 | 1.65322 | 109.64127 | 20261 ft | 394 kts | 296° |
| 2026-05-07 11:45 | 1.66432 | 109.61623 | 20718 ft | 397 kts | 295° |
| 2026-05-07 11:45 | 1.67555 | 109.59086 | 21161 ft | 400 kts | 295° |
| 2026-05-07 11:45 | 1.68646 | 109.56479 | 21578 ft | 404 kts | 292° |
| 2026-05-07 11:45 | 1.69557 | 109.53838 | 21996 ft | 407 kts | 288° |
| 2026-05-07 11:46 | 1.70344 | 109.51064 | 22427 ft | 410 kts | 287° |
| 2026-05-07 11:46 | 1.71085 | 109.48323 | 22844 ft | 413 kts | 287° |
| 2026-05-07 11:46 | 1.71837 | 109.45534 | 23273 ft | 415 kts | 286° |
| 2026-05-07 11:46 | 1.72599 | 109.42717 | 23700 ft | 417 kts | 286° |
| 2026-05-07 11:47 | 1.73354 | 109.39932 | 24107 ft | 420 kts | 286° |
| 2026-05-07 11:47 | 1.74124 | 109.37101 | 24514 ft | 422 kts | 286° |
| 2026-05-07 11:47 | 1.74898 | 109.34260 | 24924 ft | 424 kts | 286° |
| 2026-05-07 11:47 | 1.75670 | 109.31416 | 25317 ft | 426 kts | 286° |
| 2026-05-07 11:48 | 1.76453 | 109.28523 | 25696 ft | 428 kts | 286° |
| 2026-05-07 11:48 | 1.77231 | 109.25655 | 26051 ft | 431 kts | 286° |
| 2026-05-07 11:48 | 1.78020 | 109.22749 | 26398 ft | 433 kts | 286° |
| 2026-05-07 11:48 | 1.78821 | 109.19807 | 26749 ft | 435 kts | 286° |
| 2026-05-07 11:49 | 1.79614 | 109.16893 | 27112 ft | 437 kts | 286° |
| 2026-05-07 11:49 | 1.80417 | 109.13944 | 27462 ft | 438 kts | 286° |
| 2026-05-07 11:49 | 1.81218 | 109.11002 | 27782 ft | 441 kts | 286° |
| 2026-05-07 11:49 | 1.82033 | 109.08014 | 28138 ft | 442 kts | 286° |
| 2026-05-07 11:50 | 1.82841 | 109.05043 | 28475 ft | 444 kts | 286° |
| 2026-05-07 11:50 | 1.83662 | 109.02032 | 28817 ft | 445 kts | 286° |
| 2026-05-07 11:50 | 1.84477 | 108.99041 | 29132 ft | 447 kts | 285° |
| 2026-05-07 11:50 | 1.85292 | 108.96055 | 29426 ft | 450 kts | 285° |
| 2026-05-07 11:51 | 1.86125 | 108.92996 | 29717 ft | 452 kts | 285° |
| 2026-05-07 11:51 | 1.86951 | 108.89964 | 30012 ft | 454 kts | 285° |
| 2026-05-07 11:51 | 1.87787 | 108.86893 | 30303 ft | 456 kts | 285° |
| 2026-05-07 11:51 | 1.88620 | 108.83835 | 30622 ft | 457 kts | 285° |
| 2026-05-07 11:52 | 1.89467 | 108.80724 | 31050 ft | 456 kts | 285° |
| 2026-05-07 11:52 | 1.90293 | 108.77691 | 31507 ft | 453 kts | 285° |
| 2026-05-07 11:52 | 1.91114 | 108.74677 | 32216 ft | 443 kts | 285° |
| 2026-05-07 11:52 | 1.91915 | 108.71737 | 32855 ft | 437 kts | 285° |
| 2026-05-07 11:53 | 1.92719 | 108.68780 | 33212 ft | 437 kts | 285° |
| 2026-05-07 11:53 | 1.93517 | 108.65849 | 33457 ft | 440 kts | 285° |
| 2026-05-07 11:53 | 1.94334 | 108.62851 | 33732 ft | 442 kts | 285° |
| 2026-05-07 11:54 | 1.95966 | 108.56858 | 33786 ft | 444 kts | 285° |
| 2026-05-07 11:54 | 1.97597 | 108.50866 | 33792 ft | 444 kts | 285° |
| 2026-05-07 11:55 | 1.99248 | 108.44896 | 33795 ft | 443 kts | 285° |
| 2026-05-07 11:55 | 2.00897 | 108.39008 | 33786 ft | 443 kts | 285° |
| 2026-05-07 11:56 | 2.02547 | 108.33104 | 33781 ft | 443 kts | 285° |
| 2026-05-07 11:56 | 2.04205 | 108.27146 | 33795 ft | 443 kts | 286° |
| 2026-05-07 11:57 | 2.05863 | 108.21197 | 33801 ft | 444 kts | 286° |
| 2026-05-07 11:57 | 2.07523 | 108.15253 | 33795 ft | 444 kts | 286° |
| 2026-05-07 11:58 | 2.09181 | 108.09322 | 33795 ft | 443 kts | 285° |
| 2026-05-07 11:58 | 2.10855 | 108.03363 | 33793 ft | 443 kts | 286° |
| 2026-05-07 11:59 | 2.12524 | 107.97472 | 33792 ft | 443 kts | 286° |
| 2026-05-07 11:59 | 2.14178 | 107.91564 | 33790 ft | 443 kts | 285° |
| 2026-05-07 12:00 | 2.15834 | 107.85622 | 33790 ft | 444 kts | 285° |
| 2026-05-07 12:00 | 2.17503 | 107.79648 | 33783 ft | 444 kts | 285° |
| 2026-05-07 12:01 | 2.19146 | 107.73754 | 33789 ft | 443 kts | 285° |
| 2026-05-07 12:01 | 2.20792 | 107.67832 | 33807 ft | 444 kts | 285° |
| 2026-05-07 12:02 | 2.22445 | 107.61884 | 33811 ft | 443 kts | 285° |
| 2026-05-07 12:02 | 2.24092 | 107.55952 | 33812 ft | 443 kts | 285° |
| 2026-05-07 12:03 | 2.25752 | 107.49978 | 33812 ft | 443 kts | 285° |
| 2026-05-07 12:03 | 2.27403 | 107.44031 | 33814 ft | 444 kts | 285° |
| 2026-05-07 12:04 | 2.29050 | 107.38095 | 33815 ft | 444 kts | 285° |
| 2026-05-07 12:04 | 2.30706 | 107.32120 | 33815 ft | 443 kts | 285° |
| 2026-05-07 12:05 | 2.32339 | 107.26205 | 33816 ft | 443 kts | 285° |
| 2026-05-07 12:05 | 2.33978 | 107.20285 | 33816 ft | 443 kts | 285° |
| 2026-05-07 12:06 | 2.35634 | 107.14312 | 33816 ft | 443 kts | 285° |
| 2026-05-07 12:06 | 2.37284 | 107.08363 | 33820 ft | 444 kts | 285° |
| 2026-05-07 12:07 | 2.38925 | 107.02420 | 33811 ft | 445 kts | 285° |
| 2026-05-07 12:07 | 2.40573 | 106.96443 | 33800 ft | 445 kts | 285° |
| 2026-05-07 12:08 | 2.42215 | 106.90488 | 33799 ft | 445 kts | 285° |
| 2026-05-07 12:08 | 2.43865 | 106.84502 | 33787 ft | 445 kts | 285° |
| 2026-05-07 12:09 | 2.45506 | 106.78547 | 33784 ft | 444 kts | 285° |
| 2026-05-07 12:09 | 2.47147 | 106.72588 | 33804 ft | 444 kts | 285° |
| 2026-05-07 12:10 | 2.48789 | 106.66620 | 33812 ft | 445 kts | 285° |
| 2026-05-07 12:10 | 2.50434 | 106.60644 | 33791 ft | 445 kts | 285° |
| 2026-05-07 12:11 | 2.52081 | 106.54660 | 33783 ft | 446 kts | 285° |
| 2026-05-07 12:11 | 2.53715 | 106.48692 | 33792 ft | 446 kts | 285° |
| 2026-05-07 12:12 | 2.55354 | 106.42696 | 33801 ft | 445 kts | 285° |
| 2026-05-07 12:12 | 2.56990 | 106.36758 | 33812 ft | 445 kts | 285° |
| 2026-05-07 12:13 | 2.58652 | 106.30762 | 33814 ft | 445 kts | 285° |
| 2026-05-07 12:13 | 2.60294 | 106.24816 | 33815 ft | 446 kts | 285° |
| 2026-05-07 12:14 | 2.61952 | 106.18815 | 33814 ft | 445 kts | 285° |
| 2026-05-07 12:14 | 2.63595 | 106.12878 | 33813 ft | 445 kts | 285° |
| 2026-05-07 12:15 | 2.65239 | 106.06934 | 33803 ft | 445 kts | 285° |
| 2026-05-07 12:15 | 2.66882 | 106.00993 | 33789 ft | 444 kts | 285° |
| 2026-05-07 12:16 | 2.68545 | 105.94981 | 33787 ft | 444 kts | 285° |
| 2026-05-07 12:16 | 2.70187 | 105.89045 | 33797 ft | 445 kts | 285° |
| 2026-05-07 12:17 | 2.71835 | 105.83080 | 33801 ft | 445 kts | 285° |
| 2026-05-07 12:17 | 2.73496 | 105.77067 | 33788 ft | 444 kts | 285° |
| 2026-05-07 12:18 | 2.75140 | 105.71120 | 33786 ft | 444 kts | 285° |
| 2026-05-07 12:18 | 2.76791 | 105.65147 | 33792 ft | 444 kts | 285° |
| 2026-05-07 12:19 | 2.78439 | 105.59184 | 33794 ft | 445 kts | 285° |
| 2026-05-07 12:19 | 2.80085 | 105.53230 | 33788 ft | 445 kts | 285° |
| 2026-05-07 12:20 | 2.81725 | 105.47297 | 33788 ft | 445 kts | 285° |
| 2026-05-07 12:20 | 2.83382 | 105.41293 | 33798 ft | 445 kts | 285° |
| 2026-05-07 12:21 | 2.85027 | 105.35331 | 33800 ft | 444 kts | 285° |
| 2026-05-07 12:21 | 2.86666 | 105.29370 | 33792 ft | 445 kts | 285° |
| 2026-05-07 12:22 | 2.88305 | 105.23415 | 33791 ft | 445 kts | 285° |
| 2026-05-07 12:22 | 2.89960 | 105.17433 | 33798 ft | 445 kts | 285° |
| 2026-05-07 12:23 | 2.91601 | 105.11495 | 33800 ft | 445 kts | 285° |
| 2026-05-07 12:23 | 2.93245 | 105.05540 | 33798 ft | 445 kts | 285° |
| 2026-05-07 12:24 | 2.94904 | 104.99538 | 33799 ft | 445 kts | 285° |
| 2026-05-07 12:24 | 2.96551 | 104.93571 | 33797 ft | 444 kts | 285° |
| 2026-05-07 12:25 | 2.98199 | 104.87605 | 33799 ft | 444 kts | 285° |
| 2026-05-07 12:25 | 2.99844 | 104.81649 | 33806 ft | 444 kts | 285° |
| 2026-05-07 12:26 | 3.01499 | 104.75654 | 33806 ft | 445 kts | 285° |
| 2026-05-07 12:26 | 3.03143 | 104.69701 | 33812 ft | 446 kts | 285° |
| 2026-05-07 12:27 | 3.04795 | 104.63704 | 33818 ft | 445 kts | 285° |
| 2026-05-07 12:27 | 3.06434 | 104.57747 | 33809 ft | 446 kts | 285° |
| 2026-05-07 12:28 | 3.08092 | 104.51730 | 33807 ft | 447 kts | 285° |
| 2026-05-07 12:28 | 3.09745 | 104.45722 | 33807 ft | 447 kts | 285° |
| 2026-05-07 12:29 | 3.11404 | 104.39759 | 33803 ft | 447 kts | 285° |
| 2026-05-07 12:29 | 3.13078 | 104.33724 | 33800 ft | 447 kts | 285° |
| 2026-05-07 12:30 | 3.14707 | 104.27732 | 33794 ft | 446 kts | 285° |
| 2026-05-07 12:30 | 3.16301 | 104.21738 | 33795 ft | 446 kts | 283° |
| 2026-05-07 12:31 | 3.17358 | 104.15606 | 33797 ft | 445 kts | 276° |
| 2026-05-07 12:31 | 3.17634 | 104.09412 | 33785 ft | 446 kts | 268° |
| 2026-05-07 12:32 | 3.17407 | 104.03210 | 33780 ft | 446 kts | 267° |
| 2026-05-07 12:32 | 3.17159 | 103.96980 | 33798 ft | 446 kts | 267° |
| 2026-05-07 12:33 | 3.16808 | 103.87640 | 33800 ft | 445 kts | 268° |
| 2026-05-07 12:33 | 3.16580 | 103.81451 | 33799 ft | 445 kts | 268° |
| 2026-05-07 12:34 | 3.16348 | 103.75153 | 33789 ft | 445 kts | 268° |
| 2026-05-07 12:34 | 3.16117 | 103.68927 | 33783 ft | 446 kts | 268° |
| 2026-05-07 12:35 | 3.15887 | 103.62712 | 33800 ft | 446 kts | 268° |
| 2026-05-07 12:35 | 3.15920 | 103.56526 | 33815 ft | 444 kts | 274° |
| 2026-05-07 12:36 | 3.16793 | 103.50376 | 33808 ft | 443 kts | 283° |
| 2026-05-07 12:36 | 3.18476 | 103.44520 | 33802 ft | 443 kts | 290° |
| 2026-05-07 12:37 | 3.20630 | 103.38712 | 33816 ft | 443 kts | 291° |
| 2026-05-07 12:37 | 3.22796 | 103.32897 | 33822 ft | 443 kts | 291° |
| 2026-05-07 12:38 | 3.24910 | 103.27156 | 33811 ft | 443 kts | 291° |
| 2026-05-07 12:38 | 3.27049 | 103.21344 | 33805 ft | 443 kts | 291° |
| 2026-05-07 12:39 | 3.27657 | 103.19692 | 33805 ft | 442 kts | 291° |
| 2026-05-07 13:21 | 3.28460 | 103.17512 | 33813 ft | 442 kts | 291° |
| 2026-05-07 13:22 | 3.30586 | 103.11742 | 33829 ft | 442 kts | 291° |
| 2026-05-07 13:22 | 3.32726 | 103.05930 | 33828 ft | 442 kts | 291° |
| 2026-05-07 13:23 | 3.34868 | 103.00114 | 33822 ft | 442 kts | 291° |
| 2026-05-07 13:23 | 3.36996 | 102.94335 | 33833 ft | 443 kts | 291° |
| 2026-05-07 13:24 | 3.39138 | 102.88515 | 33842 ft | 442 kts | 291° |
| 2026-05-07 13:24 | 3.41272 | 102.82718 | 33842 ft | 442 kts | 291° |
| 2026-05-07 13:25 | 3.43395 | 102.76944 | 33838 ft | 441 kts | 291° |
| 2026-05-07 13:25 | 3.45521 | 102.71164 | 33832 ft | 441 kts | 291° |
| 2026-05-07 13:26 | 3.47659 | 102.65353 | 33823 ft | 441 kts | 291° |
| 2026-05-07 13:26 | 3.49790 | 102.59560 | 33833 ft | 441 kts | 291° |
| 2026-05-07 13:27 | 3.51904 | 102.53811 | 33848 ft | 440 kts | 291° |
| 2026-05-07 13:27 | 3.54030 | 102.48028 | 33840 ft | 440 kts | 291° |
| 2026-05-07 13:28 | 3.56157 | 102.42235 | 33829 ft | 440 kts | 291° |
| 2026-05-07 13:28 | 3.58266 | 102.36492 | 33837 ft | 440 kts | 291° |
| 2026-05-07 13:29 | 3.60383 | 102.30715 | 33853 ft | 440 kts | 291° |
| 2026-05-07 13:29 | 3.62492 | 102.24947 | 33854 ft | 440 kts | 291° |
| 2026-05-07 13:30 | 3.64605 | 102.19183 | 33847 ft | 441 kts | 291° |
| 2026-05-07 13:30 | 3.66725 | 102.13406 | 33844 ft | 441 kts | 291° |
| 2026-05-07 13:31 | 3.68840 | 102.07638 | 33845 ft | 441 kts | 291° |
| 2026-05-07 13:31 | 3.70968 | 102.01838 | 33847 ft | 441 kts | 291° |
| 2026-05-07 13:32 | 3.73086 | 101.96064 | 33848 ft | 441 kts | 291° |
| 2026-05-07 13:32 | 3.75205 | 101.90286 | 33843 ft | 440 kts | 291° |
| 2026-05-07 13:33 | 3.77338 | 101.84473 | 33851 ft | 441 kts | 291° |
| 2026-05-07 13:33 | 3.79448 | 101.78714 | 33874 ft | 441 kts | 291° |
| 2026-05-07 13:34 | 3.82639 | 101.70006 | 33894 ft | 441 kts | 291° |
| 2026-05-07 13:35 | 3.84752 | 101.64239 | 33864 ft | 442 kts | 291° |
| 2026-05-07 13:35 | 3.86878 | 101.58431 | 33843 ft | 442 kts | 291° |
| 2026-05-07 13:36 | 3.88992 | 101.52660 | 33484 ft | 442 kts | 291° |
| 2026-05-07 13:36 | 3.90047 | 101.49781 | 33025 ft | 439 kts | 291° |
| 2026-05-07 13:36 | 3.91104 | 101.46894 | 32462 ft | 437 kts | 291° |
| 2026-05-07 13:36 | 3.92157 | 101.44019 | 31908 ft | 437 kts | 291° |
| 2026-05-07 13:37 | 3.93206 | 101.41154 | 31311 ft | 438 kts | 291° |
| 2026-05-07 13:37 | 3.94252 | 101.38294 | 30658 ft | 440 kts | 291° |
| 2026-05-07 13:37 | 3.95308 | 101.35410 | 29993 ft | 442 kts | 291° |
| 2026-05-07 13:37 | 3.96378 | 101.32476 | 29301 ft | 445 kts | 290° |
| 2026-05-07 13:38 | 3.97430 | 101.29584 | 28637 ft | 447 kts | 290° |
| 2026-05-07 13:38 | 3.98500 | 101.26643 | 28101 ft | 445 kts | 291° |
| 2026-05-07 13:38 | 3.99549 | 101.23763 | 27653 ft | 441 kts | 291° |
| 2026-05-07 13:38 | 4.00601 | 101.20877 | 27188 ft | 437 kts | 291° |
| 2026-05-07 13:39 | 4.01640 | 101.18034 | 26731 ft | 433 kts | 291° |
| 2026-05-07 13:39 | 4.02675 | 101.15202 | 26289 ft | 429 kts | 291° |
| 2026-05-07 13:39 | 4.03690 | 101.12424 | 25843 ft | 426 kts | 291° |
| 2026-05-07 13:39 | 4.04715 | 101.09621 | 25401 ft | 423 kts | 291° |
| 2026-05-07 13:40 | 4.05721 | 101.06867 | 24957 ft | 420 kts | 291° |
| 2026-05-07 13:40 | 4.06718 | 101.04138 | 24514 ft | 417 kts | 291° |
| 2026-05-07 13:40 | 4.07719 | 101.01399 | 24075 ft | 414 kts | 291° |
| 2026-05-07 13:40 | 4.08708 | 100.98693 | 23637 ft | 412 kts | 291° |
| 2026-05-07 13:41 | 4.09696 | 100.95991 | 23222 ft | 409 kts | 291° |
| 2026-05-07 13:41 | 4.10670 | 100.93335 | 22815 ft | 406 kts | 292° |
| 2026-05-07 13:41 | 4.11654 | 100.90678 | 22398 ft | 404 kts | 292° |
| 2026-05-07 13:41 | 4.12623 | 100.88051 | 21977 ft | 403 kts | 292° |
| 2026-05-07 13:42 | 4.13589 | 100.85416 | 21560 ft | 401 kts | 292° |
| 2026-05-07 13:42 | 4.14547 | 100.82795 | 21123 ft | 400 kts | 292° |
| 2026-05-07 13:42 | 4.15512 | 100.80154 | 20654 ft | 399 kts | 292° |
| 2026-05-07 13:42 | 4.16535 | 100.77579 | 20166 ft | 397 kts | 300° |
| 2026-05-07 13:43 | 4.18144 | 100.75359 | 19704 ft | 390 kts | 318° |
| 2026-05-07 13:43 | 4.20258 | 100.73698 | 19250 ft | 385 kts | 329° |
| 2026-05-07 13:43 | 4.22497 | 100.72244 | 18773 ft | 384 kts | 330° |
| 2026-05-07 13:43 | 4.24756 | 100.70801 | 18314 ft | 382 kts | 330° |
| 2026-05-07 13:44 | 4.26988 | 100.69366 | 17871 ft | 381 kts | 330° |
| 2026-05-07 13:44 | 4.29232 | 100.67911 | 17416 ft | 379 kts | 330° |
| 2026-05-07 13:44 | 4.31443 | 100.66469 | 16978 ft | 377 kts | 330° |
| 2026-05-07 13:44 | 4.33647 | 100.65024 | 16549 ft | 375 kts | 330° |
| 2026-05-07 13:45 | 4.35836 | 100.63589 | 16124 ft | 372 kts | 329° |
| 2026-05-07 13:45 | 4.37993 | 100.62170 | 15703 ft | 369 kts | 329° |
| 2026-05-07 13:45 | 4.40140 | 100.60757 | 15284 ft | 367 kts | 329° |
| 2026-05-07 13:45 | 4.42274 | 100.59351 | 14864 ft | 364 kts | 329° |
| 2026-05-07 13:46 | 4.44411 | 100.57944 | 14468 ft | 361 kts | 329° |
| 2026-05-07 13:46 | 4.46508 | 100.56561 | 14127 ft | 357 kts | 329° |
| 2026-05-07 13:46 | 4.48610 | 100.55177 | 13742 ft | 354 kts | 329° |
| 2026-05-07 13:46 | 4.50681 | 100.53812 | 13323 ft | 352 kts | 329° |
| 2026-05-07 13:47 | 4.52729 | 100.52462 | 12908 ft | 351 kts | 329° |
| 2026-05-07 13:47 | 4.54784 | 100.51109 | 12514 ft | 348 kts | 329° |
| 2026-05-07 13:47 | 4.56825 | 100.49765 | 12151 ft | 345 kts | 329° |
| 2026-05-07 13:47 | 4.58809 | 100.48457 | 11774 ft | 343 kts | 328° |
| 2026-05-07 13:48 | 4.60822 | 100.47129 | 11391 ft | 340 kts | 328° |
| 2026-05-07 13:48 | 4.62791 | 100.45833 | 11019 ft | 338 kts | 328° |
| 2026-05-07 13:48 | 4.64764 | 100.44531 | 10634 ft | 336 kts | 328° |
| 2026-05-07 13:48 | 4.66746 | 100.43225 | 10251 ft | 334 kts | 328° |
| 2026-05-07 13:49 | 4.68703 | 100.41934 | 10046 ft | 324 kts | 328° |
| 2026-05-07 13:49 | 4.70541 | 100.40720 | 9999 ft | 309 kts | 328° |